sensor_id;sensor_type;location;lat;lon;timestamp;P1;durP1;ratioP1;P2;durP2;ratioP2
15022;SDS011;19850;49.576;10.880;2022-08-24T00:00:42;6.13;;;2.70;;
15022;SDS011;19850;49.576;10.880;2022-08-24T00:04:45;5.43;;;2.50;;
15022;SDS011;19850;49.576;10.880;2022-08-24T00:08:50;4.47;;;2.60;;
15022;SDS011;19850;49.576;10.880;2022-08-24T00:12:55;4.67;;;2.20;;
15022;SDS011;19850;49.576;10.880;2022-08-24T00:16:58;5.77;;;2.40;;
15022;SDS011;19850;49.576;10.880;2022-08-24T00:21:02;3.37;;;2.33;;
15022;SDS011;19850;49.576;10.880;2022-08-24T00:25:05;4.23;;;2.40;;
15022;SDS011;19850;49.576;10.880;2022-08-24T00:29:11;5.13;;;2.30;;
15022;SDS011;19850;49.576;10.880;2022-08-24T00:33:14;8.03;;;2.60;;
15022;SDS011;19850;49.576;10.880;2022-08-24T00:37:17;3.60;;;2.20;;
15022;SDS011;19850;49.576;10.880;2022-08-24T00:41:20;6.57;;;2.70;;
15022;SDS011;19850;49.576;10.880;2022-08-24T00:45:24;4.47;;;2.37;;
15022;SDS011;19850;49.576;10.880;2022-08-24T00:49:29;4.33;;;2.40;;
15022;SDS011;19850;49.576;10.880;2022-08-24T00:53:36;4.00;;;2.50;;
15022;SDS011;19850;49.576;10.880;2022-08-24T00:57:41;4.80;;;2.60;;
15022;SDS011;19850;49.576;10.880;2022-08-24T01:01:48;4.70;;;2.37;;
15022;SDS011;19850;49.576;10.880;2022-08-24T01:05:52;3.17;;;2.57;;
15022;SDS011;19850;49.576;10.880;2022-08-24T01:09:56;5.70;;;2.70;;
15022;SDS011;19850;49.576;10.880;2022-08-24T01:14:00;3.33;;;2.70;;
15022;SDS011;19850;49.576;10.880;2022-08-24T01:18:07;4.20;;;2.80;;
15022;SDS011;19850;49.576;10.880;2022-08-24T01:22:37;3.37;;;2.93;;
15022;SDS011;19850;49.576;10.880;2022-08-24T01:26:55;5.97;;;3.00;;
15022;SDS011;19850;49.576;10.880;2022-08-24T01:30:58;3.67;;;2.73;;
15022;SDS011;19850;49.576;10.880;2022-08-24T01:35:02;6.03;;;2.77;;
15022;SDS011;19850;49.576;10.880;2022-08-24T01:39:07;5.07;;;2.93;;
15022;SDS011;19850;49.576;10.880;2022-08-24T01:43:14;5.83;;;3.17;;
15022;SDS011;19850;49.576;10.880;2022-08-24T01:47:17;5.40;;;2.93;;
15022;SDS011;19850;49.576;10.880;2022-08-24T01:51:20;4.70;;;2.80;;
15022;SDS011;19850;49.576;10.880;2022-08-24T01:55:23;4.13;;;3.00;;
15022;SDS011;19850;49.576;10.880;2022-08-24T01:59:28;5.10;;;3.00;;
15022;SDS011;19850;49.576;10.880;2022-08-24T02:03:31;7.47;;;2.70;;
15022;SDS011;19850;49.576;10.880;2022-08-24T02:07:34;5.80;;;2.83;;
15022;SDS011;19850;49.576;10.880;2022-08-24T02:11:37;4.97;;;2.90;;
15022;SDS011;19850;49.576;10.880;2022-08-24T02:15:43;4.33;;;2.90;;
15022;SDS011;19850;49.576;10.880;2022-08-24T02:19:48;4.30;;;3.23;;
15022;SDS011;19850;49.576;10.880;2022-08-24T02:23:51;4.10;;;3.10;;
15022;SDS011;19850;49.576;10.880;2022-08-24T02:27:54;5.80;;;3.53;;
15022;SDS011;19850;49.576;10.880;2022-08-24T02:31:59;5.13;;;3.30;;
15022;SDS011;19850;49.576;10.880;2022-08-24T02:36:02;7.07;;;3.47;;
15022;SDS011;19850;49.576;10.880;2022-08-24T02:40:26;3.97;;;3.50;;
15022;SDS011;19850;49.576;10.880;2022-08-24T02:44:29;6.87;;;3.50;;
15022;SDS011;19850;49.576;10.880;2022-08-24T02:48:33;4.80;;;3.43;;
15022;SDS011;19850;49.576;10.880;2022-08-24T02:52:36;4.10;;;3.47;;
15022;SDS011;19850;49.576;10.880;2022-08-24T02:56:39;9.03;;;3.80;;
15022;SDS011;19850;49.576;10.880;2022-08-24T03:00:43;4.83;;;3.57;;
15022;SDS011;19850;49.576;10.880;2022-08-24T03:04:50;5.10;;;3.10;;
15022;SDS011;19850;49.576;10.880;2022-08-24T03:08:53;7.13;;;3.13;;
15022;SDS011;19850;49.576;10.880;2022-08-24T03:12:57;7.47;;;3.43;;
15022;SDS011;19850;49.576;10.880;2022-08-24T03:17:01;4.90;;;3.53;;
15022;SDS011;19850;49.576;10.880;2022-08-24T03:21:06;6.40;;;3.10;;
15022;SDS011;19850;49.576;10.880;2022-08-24T03:25:10;4.30;;;3.10;;
15022;SDS011;19850;49.576;10.880;2022-08-24T03:29:14;4.37;;;3.30;;
15022;SDS011;19850;49.576;10.880;2022-08-24T03:33:17;5.87;;;3.43;;
15022;SDS011;19850;49.576;10.880;2022-08-24T03:37:21;6.40;;;3.27;;
15022;SDS011;19850;49.576;10.880;2022-08-24T03:41:24;5.47;;;3.23;;
15022;SDS011;19850;49.576;10.880;2022-08-24T03:45:28;5.70;;;3.67;;
15022;SDS011;19850;49.576;10.880;2022-08-24T03:49:31;7.50;;;4.10;;
15022;SDS011;19850;49.576;10.880;2022-08-24T03:53:35;6.93;;;3.50;;
15022;SDS011;19850;49.576;10.880;2022-08-24T03:57:43;3.67;;;3.30;;
15022;SDS011;19850;49.576;10.880;2022-08-24T04:01:47;9.77;;;3.80;;
15022;SDS011;19850;49.576;10.880;2022-08-24T04:05:50;6.13;;;3.50;;
15022;SDS011;19850;49.576;10.880;2022-08-24T04:09:54;6.57;;;4.10;;
15022;SDS011;19850;49.576;10.880;2022-08-24T04:13:57;4.43;;;3.50;;
15022;SDS011;19850;49.576;10.880;2022-08-24T04:18:00;7.00;;;3.60;;
15022;SDS011;19850;49.576;10.880;2022-08-24T04:22:03;5.60;;;3.17;;
15022;SDS011;19850;49.576;10.880;2022-08-24T04:26:07;5.33;;;4.10;;
15022;SDS011;19850;49.576;10.880;2022-08-24T04:30:11;11.47;;;8.53;;
15022;SDS011;19850;49.576;10.880;2022-08-24T04:34:15;16.50;;;11.10;;
15022;SDS011;19850;49.576;10.880;2022-08-24T04:38:19;18.80;;;11.67;;
15022;SDS011;19850;49.576;10.880;2022-08-24T04:42:23;16.73;;;12.03;;
15022;SDS011;19850;49.576;10.880;2022-08-24T04:46:27;20.33;;;12.20;;
15022;SDS011;19850;49.576;10.880;2022-08-24T04:50:32;17.27;;;12.00;;
15022;SDS011;19850;49.576;10.880;2022-08-24T04:54:35;22.13;;;12.63;;
15022;SDS011;19850;49.576;10.880;2022-08-24T04:58:40;17.83;;;11.77;;
15022;SDS011;19850;49.576;10.880;2022-08-24T05:02:43;11.67;;;8.20;;
15022;SDS011;19850;49.576;10.880;2022-08-24T05:06:46;11.23;;;6.73;;
15022;SDS011;19850;49.576;10.880;2022-08-24T05:10:54;10.60;;;6.70;;
15022;SDS011;19850;49.576;10.880;2022-08-24T05:14:59;15.37;;;7.87;;
15022;SDS011;19850;49.576;10.880;2022-08-24T05:19:02;11.80;;;7.80;;
15022;SDS011;19850;49.576;10.880;2022-08-24T05:23:07;11.03;;;6.00;;
15022;SDS011;19850;49.576;10.880;2022-08-24T05:27:11;10.03;;;6.50;;
15022;SDS011;19850;49.576;10.880;2022-08-24T05:31:17;12.73;;;7.03;;
15022;SDS011;19850;49.576;10.880;2022-08-24T05:35:21;9.47;;;6.90;;
15022;SDS011;19850;49.576;10.880;2022-08-24T05:39:24;14.13;;;7.47;;
15022;SDS011;19850;49.576;10.880;2022-08-24T05:43:27;12.37;;;7.70;;
15022;SDS011;19850;49.576;10.880;2022-08-24T05:47:31;12.43;;;6.90;;
15022;SDS011;19850;49.576;10.880;2022-08-24T05:51:35;15.53;;;7.97;;
15022;SDS011;19850;49.576;10.880;2022-08-24T05:55:38;16.73;;;8.77;;
15022;SDS011;19850;49.576;10.880;2022-08-24T05:59:41;13.67;;;8.00;;
15022;SDS011;19850;49.576;10.880;2022-08-24T06:03:46;10.90;;;8.10;;
15022;SDS011;19850;49.576;10.880;2022-08-24T06:07:49;12.27;;;9.30;;
15022;SDS011;19850;49.576;10.880;2022-08-24T06:11:52;13.20;;;9.57;;
15022;SDS011;19850;49.576;10.880;2022-08-24T06:16:02;17.33;;;9.33;;
15022;SDS011;19850;49.576;10.880;2022-08-24T06:20:23;12.43;;;8.93;;
15022;SDS011;19850;49.576;10.880;2022-08-24T06:24:26;16.07;;;9.60;;
15022;SDS011;19850;49.576;10.880;2022-08-24T06:28:43;12.80;;;8.43;;
15022;SDS011;19850;49.576;10.880;2022-08-24T06:32:46;11.07;;;7.70;;
15022;SDS011;19850;49.576;10.880;2022-08-24T06:36:52;21.17;;;9.47;;
15022;SDS011;19850;49.576;10.880;2022-08-24T06:40:55;14.20;;;8.03;;
15022;SDS011;19850;49.576;10.880;2022-08-24T06:44:58;11.97;;;8.33;;
15022;SDS011;19850;49.576;10.880;2022-08-24T06:49:01;12.40;;;7.80;;
15022;SDS011;19850;49.576;10.880;2022-08-24T06:53:06;12.50;;;7.63;;
15022;SDS011;19850;49.576;10.880;2022-08-24T06:57:09;9.20;;;6.83;;
15022;SDS011;19850;49.576;10.880;2022-08-24T07:01:13;11.03;;;7.00;;
15022;SDS011;19850;49.576;10.880;2022-08-24T07:05:17;12.50;;;6.70;;
15022;SDS011;19850;49.576;10.880;2022-08-24T07:09:22;10.97;;;7.73;;
15022;SDS011;19850;49.576;10.880;2022-08-24T07:13:25;12.60;;;7.47;;
15022;SDS011;19850;49.576;10.880;2022-08-24T07:17:29;6.80;;;6.10;;
15022;SDS011;19850;49.576;10.880;2022-08-24T07:21:32;8.77;;;6.23;;
15022;SDS011;19850;49.576;10.880;2022-08-24T07:25:37;10.47;;;5.90;;
15022;SDS011;19850;49.576;10.880;2022-08-24T07:29:41;11.83;;;6.07;;
15022;SDS011;19850;49.576;10.880;2022-08-24T07:33:56;8.30;;;5.93;;
15022;SDS011;19850;49.576;10.880;2022-08-24T07:37:59;9.00;;;4.93;;
15022;SDS011;19850;49.576;10.880;2022-08-24T07:42:04;7.57;;;5.60;;
15022;SDS011;19850;49.576;10.880;2022-08-24T07:46:23;8.07;;;5.33;;
15022;SDS011;19850;49.576;10.880;2022-08-24T07:50:26;6.27;;;4.87;;
15022;SDS011;19850;49.576;10.880;2022-08-24T07:54:29;7.60;;;5.53;;
15022;SDS011;19850;49.576;10.880;2022-08-24T07:58:34;7.13;;;4.57;;
15022;SDS011;19850;49.576;10.880;2022-08-24T08:02:37;5.17;;;4.67;;
15022;SDS011;19850;49.576;10.880;2022-08-24T08:06:43;9.37;;;4.50;;
15022;SDS011;19850;49.576;10.880;2022-08-24T08:10:47;6.20;;;4.23;;
15022;SDS011;19850;49.576;10.880;2022-08-24T08:14:51;12.30;;;4.03;;
15022;SDS011;19850;49.576;10.880;2022-08-24T08:18:54;8.93;;;3.90;;
15022;SDS011;19850;49.576;10.880;2022-08-24T08:23:12;7.67;;;4.07;;
15022;SDS011;19850;49.576;10.880;2022-08-24T08:27:33;5.47;;;3.60;;
15022;SDS011;19850;49.576;10.880;2022-08-24T08:31:38;4.80;;;3.60;;
15022;SDS011;19850;49.576;10.880;2022-08-24T08:35:42;6.80;;;4.03;;
15022;SDS011;19850;49.576;10.880;2022-08-24T08:39:45;4.50;;;3.63;;
15022;SDS011;19850;49.576;10.880;2022-08-24T08:43:49;8.47;;;4.27;;
15022;SDS011;19850;49.576;10.880;2022-08-24T08:48:22;5.53;;;3.67;;
15022;SDS011;19850;49.576;10.880;2022-08-24T08:57:29;12.50;;;4.00;;
15022;SDS011;19850;49.576;10.880;2022-08-24T09:01:40;6.07;;;3.50;;
15022;SDS011;19850;49.576;10.880;2022-08-24T09:06:03;5.83;;;3.17;;
15022;SDS011;19850;49.576;10.880;2022-08-24T09:10:28;7.33;;;3.50;;
15022;SDS011;19850;49.576;10.880;2022-08-24T09:14:50;5.53;;;3.20;;
15022;SDS011;19850;49.576;10.880;2022-08-24T09:19:11;5.00;;;3.30;;
15022;SDS011;19850;49.576;10.880;2022-08-24T09:23:35;4.73;;;3.73;;
15022;SDS011;19850;49.576;10.880;2022-08-24T09:27:48;6.87;;;3.20;;
15022;SDS011;19850;49.576;10.880;2022-08-24T09:32:11;5.73;;;3.10;;
15022;SDS011;19850;49.576;10.880;2022-08-24T09:36:26;5.10;;;3.23;;
15022;SDS011;19850;49.576;10.880;2022-08-24T09:40:38;4.40;;;3.27;;
15022;SDS011;19850;49.576;10.880;2022-08-24T09:44:59;4.13;;;2.80;;
15022;SDS011;19850;49.576;10.880;2022-08-24T09:58:46;5.87;;;3.10;;
15022;SDS011;19850;49.576;10.880;2022-08-24T10:02:59;7.77;;;2.77;;
15022;SDS011;19850;49.576;10.880;2022-08-24T10:07:11;4.20;;;2.83;;
15022;SDS011;19850;49.576;10.880;2022-08-24T10:11:20;4.33;;;2.77;;
15022;SDS011;19850;49.576;10.880;2022-08-24T10:15:32;3.40;;;2.63;;
15022;SDS011;19850;49.576;10.880;2022-08-24T10:19:43;4.73;;;2.73;;
15022;SDS011;19850;49.576;10.880;2022-08-24T10:23:53;5.73;;;2.93;;
15022;SDS011;19850;49.576;10.880;2022-08-24T10:28:08;2.87;;;2.50;;
15022;SDS011;19850;49.576;10.880;2022-08-24T10:32:32;3.73;;;2.10;;
15022;SDS011;19850;49.576;10.880;2022-08-24T10:36:53;5.70;;;2.57;;
15022;SDS011;19850;49.576;10.880;2022-08-24T10:41:24;4.00;;;2.60;;
15022;SDS011;19850;49.576;10.880;2022-08-24T10:45:44;4.03;;;2.63;;
15022;SDS011;19850;49.576;10.880;2022-08-24T10:50:13;2.60;;;2.10;;
15022;SDS011;19850;49.576;10.880;2022-08-24T10:54:21;4.30;;;1.97;;
15022;SDS011;19850;49.576;10.880;2022-08-24T11:07:29;5.77;;;2.47;;
15022;SDS011;19850;49.576;10.880;2022-08-24T11:11:33;2.93;;;2.27;;
15022;SDS011;19850;49.576;10.880;2022-08-24T11:15:45;4.40;;;2.33;;
15022;SDS011;19850;49.576;10.880;2022-08-24T11:19:50;3.83;;;2.70;;
15022;SDS011;19850;49.576;10.880;2022-08-24T11:23:54;4.13;;;2.30;;
15022;SDS011;19850;49.576;10.880;2022-08-24T11:28:04;2.97;;;2.53;;
15022;SDS011;19850;49.576;10.880;2022-08-24T11:32:09;3.90;;;2.20;;
15022;SDS011;19850;49.576;10.880;2022-08-24T11:36:27;2.70;;;2.07;;
15022;SDS011;19850;49.576;10.880;2022-08-24T11:40:38;5.20;;;2.13;;
15022;SDS011;19850;49.576;10.880;2022-08-24T11:44:45;3.97;;;2.20;;
15022;SDS011;19850;49.576;10.880;2022-08-24T11:48:54;4.43;;;2.20;;
15022;SDS011;19850;49.576;10.880;2022-08-24T11:53:10;3.13;;;2.08;;
15022;SDS011;19850;49.576;10.880;2022-08-24T11:57:19;4.20;;;2.30;;
15022;SDS011;19850;49.576;10.880;2022-08-24T12:01:25;3.47;;;2.20;;
15022;SDS011;19850;49.576;10.880;2022-08-24T12:05:33;3.07;;;2.13;;
15022;SDS011;19850;49.576;10.880;2022-08-24T12:09:44;2.33;;;1.80;;
15022;SDS011;19850;49.576;10.880;2022-08-24T12:13:56;2.70;;;2.20;;
15022;SDS011;19850;49.576;10.880;2022-08-24T12:18:11;3.53;;;2.10;;
15022;SDS011;19850;49.576;10.880;2022-08-24T12:22:20;4.57;;;2.40;;
15022;SDS011;19850;49.576;10.880;2022-08-24T12:26:24;2.97;;;2.00;;
15022;SDS011;19850;49.576;10.880;2022-08-24T12:30:29;3.50;;;2.20;;
15022;SDS011;19850;49.576;10.880;2022-08-24T12:34:36;3.67;;;2.23;;
15022;SDS011;19850;49.576;10.880;2022-08-24T12:38:51;2.47;;;2.27;;
15022;SDS011;19850;49.576;10.880;2022-08-24T12:43:03;3.43;;;2.70;;
15022;SDS011;19850;49.576;10.880;2022-08-24T12:47:10;2.83;;;2.43;;
15022;SDS011;19850;49.576;10.880;2022-08-24T12:51:17;3.67;;;2.30;;
15022;SDS011;19850;49.576;10.880;2022-08-24T12:55:38;6.77;;;2.30;;
15022;SDS011;19850;49.576;10.880;2022-08-24T13:00:00;3.87;;;2.53;;
15022;SDS011;19850;49.576;10.880;2022-08-24T13:04:10;3.33;;;2.30;;
15022;SDS011;19850;49.576;10.880;2022-08-24T13:08:20;3.27;;;2.50;;
15022;SDS011;19850;49.576;10.880;2022-08-24T13:17:20;2.40;;;2.20;;
15022;SDS011;19850;49.576;10.880;2022-08-24T13:21:38;4.10;;;2.70;;
15022;SDS011;19850;49.576;10.880;2022-08-24T13:25:55;2.43;;;2.00;;
15022;SDS011;19850;49.576;10.880;2022-08-24T13:30:03;3.10;;;2.40;;
15022;SDS011;19850;49.576;10.880;2022-08-24T13:38:58;3.80;;;3.27;;
15022;SDS011;19850;49.576;10.880;2022-08-24T13:43:07;4.03;;;3.10;;
15022;SDS011;19850;49.576;10.880;2022-08-24T13:47:15;3.20;;;2.80;;
15022;SDS011;19850;49.576;10.880;2022-08-24T13:51:25;3.40;;;2.70;;
15022;SDS011;19850;49.576;10.880;2022-08-24T13:55:33;4.33;;;2.80;;
15022;SDS011;19850;49.576;10.880;2022-08-24T13:59:46;2.97;;;2.67;;
15022;SDS011;19850;49.576;10.880;2022-08-24T14:08:34;4.40;;;3.10;;
15022;SDS011;19850;49.576;10.880;2022-08-24T14:12:48;6.43;;;3.20;;
15022;SDS011;19850;49.576;10.880;2022-08-24T14:16:59;4.07;;;2.93;;
15022;SDS011;19850;49.576;10.880;2022-08-24T14:21:23;5.90;;;3.60;;
15022;SDS011;19850;49.576;10.880;2022-08-24T14:25:35;3.70;;;3.03;;
15022;SDS011;19850;49.576;10.880;2022-08-24T14:29:41;3.90;;;3.23;;
15022;SDS011;19850;49.576;10.880;2022-08-24T14:33:54;4.30;;;3.13;;
15022;SDS011;19850;49.576;10.880;2022-08-24T14:42:35;4.10;;;3.03;;
15022;SDS011;19850;49.576;10.880;2022-08-24T14:46:45;3.93;;;3.10;;
15022;SDS011;19850;49.576;10.880;2022-08-24T14:50:54;3.33;;;2.90;;
15022;SDS011;19850;49.576;10.880;2022-08-24T14:55:03;5.10;;;3.23;;
15022;SDS011;19850;49.576;10.880;2022-08-24T14:59:10;6.57;;;3.27;;
15022;SDS011;19850;49.576;10.880;2022-08-24T15:03:31;4.70;;;3.10;;
15022;SDS011;19850;49.576;10.880;2022-08-24T15:07:50;7.53;;;3.23;;
15022;SDS011;19850;49.576;10.880;2022-08-24T15:11:56;4.60;;;3.07;;
15022;SDS011;19850;49.576;10.880;2022-08-24T15:16:16;4.43;;;3.43;;
15022;SDS011;19850;49.576;10.880;2022-08-24T15:20:24;6.50;;;3.60;;
15022;SDS011;19850;49.576;10.880;2022-08-24T15:24:46;6.50;;;3.87;;
15022;SDS011;19850;49.576;10.880;2022-08-24T15:28:53;4.97;;;3.60;;
15022;SDS011;19850;49.576;10.880;2022-08-24T15:33:01;6.67;;;3.77;;
15022;SDS011;19850;49.576;10.880;2022-08-24T15:37:08;6.23;;;3.37;;
15022;SDS011;19850;49.576;10.880;2022-08-24T15:41:13;4.33;;;3.63;;
15022;SDS011;19850;49.576;10.880;2022-08-24T15:45:18;5.07;;;3.80;;
15022;SDS011;19850;49.576;10.880;2022-08-24T15:49:22;5.60;;;4.13;;
15022;SDS011;19850;49.576;10.880;2022-08-24T15:53:32;7.53;;;4.00;;
15022;SDS011;19850;49.576;10.880;2022-08-24T15:57:37;5.23;;;3.50;;
15022;SDS011;19850;49.576;10.880;2022-08-24T16:01:41;6.40;;;4.43;;
15022;SDS011;19850;49.576;10.880;2022-08-24T16:06:14;4.63;;;4.03;;
15022;SDS011;19850;49.576;10.880;2022-08-24T16:10:28;4.80;;;4.30;;
15022;SDS011;19850;49.576;10.880;2022-08-24T16:14:34;4.60;;;4.10;;
15022;SDS011;19850;49.576;10.880;2022-08-24T16:18:47;9.87;;;3.80;;
15022;SDS011;19850;49.576;10.880;2022-08-24T16:22:52;6.00;;;4.20;;
15022;SDS011;19850;49.576;10.880;2022-08-24T16:27:04;4.73;;;3.77;;
15022;SDS011;19850;49.576;10.880;2022-08-24T16:31:09;8.23;;;4.20;;
15022;SDS011;19850;49.576;10.880;2022-08-24T16:35:13;5.67;;;4.00;;
15022;SDS011;19850;49.576;10.880;2022-08-24T16:39:18;5.30;;;4.40;;
15022;SDS011;19850;49.576;10.880;2022-08-24T16:43:22;8.10;;;4.50;;
15022;SDS011;19850;49.576;10.880;2022-08-24T16:47:26;9.17;;;4.37;;
15022;SDS011;19850;49.576;10.880;2022-08-24T16:51:29;5.23;;;4.23;;
15022;SDS011;19850;49.576;10.880;2022-08-24T16:55:32;7.30;;;4.17;;
15022;SDS011;19850;49.576;10.880;2022-08-24T16:59:36;5.00;;;4.30;;
15022;SDS011;19850;49.576;10.880;2022-08-24T17:03:39;5.77;;;4.40;;
15022;SDS011;19850;49.576;10.880;2022-08-24T17:07:43;6.50;;;4.30;;
15022;SDS011;19850;49.576;10.880;2022-08-24T17:11:46;4.57;;;3.70;;
15022;SDS011;19850;49.576;10.880;2022-08-24T17:15:51;4.93;;;4.20;;
15022;SDS011;19850;49.576;10.880;2022-08-24T17:19:54;4.63;;;4.13;;
15022;SDS011;19850;49.576;10.880;2022-08-24T17:23:57;5.43;;;4.17;;
15022;SDS011;19850;49.576;10.880;2022-08-24T17:28:01;5.23;;;4.13;;
15022;SDS011;19850;49.576;10.880;2022-08-24T17:32:06;5.93;;;4.40;;
15022;SDS011;19850;49.576;10.880;2022-08-24T17:36:09;6.53;;;4.60;;
15022;SDS011;19850;49.576;10.880;2022-08-24T17:40:17;5.30;;;4.80;;
15022;SDS011;19850;49.576;10.880;2022-08-24T17:44:22;6.97;;;4.37;;
15022;SDS011;19850;49.576;10.880;2022-08-24T17:48:28;5.67;;;4.50;;
15022;SDS011;19850;49.576;10.880;2022-08-24T17:52:34;6.40;;;4.60;;
15022;SDS011;19850;49.576;10.880;2022-08-24T17:56:37;7.70;;;4.77;;
15022;SDS011;19850;49.576;10.880;2022-08-24T18:00:41;5.80;;;4.87;;
15022;SDS011;19850;49.576;10.880;2022-08-24T18:04:46;8.73;;;4.83;;
15022;SDS011;19850;49.576;10.880;2022-08-24T18:08:50;6.07;;;5.23;;
15022;SDS011;19850;49.576;10.880;2022-08-24T18:12:57;6.77;;;5.47;;
15022;SDS011;19850;49.576;10.880;2022-08-24T18:17:01;7.87;;;5.47;;
15022;SDS011;19850;49.576;10.880;2022-08-24T18:21:08;7.07;;;5.63;;
15022;SDS011;19850;49.576;10.880;2022-08-24T18:25:12;8.70;;;5.50;;
15022;SDS011;19850;49.576;10.880;2022-08-24T18:29:18;6.37;;;5.67;;
15022;SDS011;19850;49.576;10.880;2022-08-24T18:33:22;8.07;;;5.80;;
15022;SDS011;19850;49.576;10.880;2022-08-24T18:37:27;6.67;;;5.43;;
15022;SDS011;19850;49.576;10.880;2022-08-24T18:41:31;6.43;;;5.70;;
15022;SDS011;19850;49.576;10.880;2022-08-24T18:45:36;6.63;;;5.90;;
15022;SDS011;19850;49.576;10.880;2022-08-24T18:49:40;7.20;;;5.70;;
15022;SDS011;19850;49.576;10.880;2022-08-24T18:53:44;6.77;;;6.07;;
15022;SDS011;19850;49.576;10.880;2022-08-24T18:57:48;41.77;;;15.43;;
15022;SDS011;19850;49.576;10.880;2022-08-24T19:01:52;6.93;;;5.90;;
15022;SDS011;19850;49.576;10.880;2022-08-24T19:06:12;7.53;;;5.97;;
15022;SDS011;19850;49.576;10.880;2022-08-24T19:10:17;9.43;;;5.87;;
15022;SDS011;19850;49.576;10.880;2022-08-24T19:14:23;7.00;;;5.97;;
15022;SDS011;19850;49.576;10.880;2022-08-24T19:18:26;10.33;;;6.23;;
15022;SDS011;19850;49.576;10.880;2022-08-24T19:22:29;7.17;;;6.13;;
15022;SDS011;19850;49.576;10.880;2022-08-24T19:26:33;11.50;;;6.93;;
15022;SDS011;19850;49.576;10.880;2022-08-24T19:30:37;11.27;;;6.60;;
15022;SDS011;19850;49.576;10.880;2022-08-24T19:34:40;7.03;;;6.23;;
15022;SDS011;19850;49.576;10.880;2022-08-24T19:38:43;10.20;;;6.77;;
15022;SDS011;19850;49.576;10.880;2022-08-24T19:42:47;9.93;;;7.63;;
15022;SDS011;19850;49.576;10.880;2022-08-24T19:46:51;8.47;;;7.40;;
15022;SDS011;19850;49.576;10.880;2022-08-24T19:50:54;10.00;;;6.77;;
15022;SDS011;19850;49.576;10.880;2022-08-24T19:54:57;10.50;;;6.90;;
15022;SDS011;19850;49.576;10.880;2022-08-24T19:59:05;10.57;;;6.80;;
15022;SDS011;19850;49.576;10.880;2022-08-24T20:03:09;8.93;;;6.43;;
15022;SDS011;19850;49.576;10.880;2022-08-24T20:07:13;11.63;;;6.83;;
15022;SDS011;19850;49.576;10.880;2022-08-24T20:11:17;9.23;;;6.67;;
15022;SDS011;19850;49.576;10.880;2022-08-24T20:15:26;9.53;;;6.50;;
15022;SDS011;19850;49.576;10.880;2022-08-24T20:19:29;8.03;;;6.50;;
15022;SDS011;19850;49.576;10.880;2022-08-24T20:23:36;6.97;;;6.27;;
15022;SDS011;19850;49.576;10.880;2022-08-24T20:27:39;9.00;;;6.77;;
15022;SDS011;19850;49.576;10.880;2022-08-24T20:31:45;9.67;;;7.60;;
15022;SDS011;19850;49.576;10.880;2022-08-24T20:35:52;9.23;;;6.53;;
15022;SDS011;19850;49.576;10.880;2022-08-24T20:39:56;9.30;;;6.83;;
15022;SDS011;19850;49.576;10.880;2022-08-24T20:43:59;11.57;;;6.87;;
15022;SDS011;19850;49.576;10.880;2022-08-24T20:48:04;7.03;;;6.30;;
15022;SDS011;19850;49.576;10.880;2022-08-24T20:52:10;9.97;;;7.00;;
15022;SDS011;19850;49.576;10.880;2022-08-24T20:56:15;8.33;;;7.13;;
15022;SDS011;19850;49.576;10.880;2022-08-24T21:00:27;11.70;;;7.43;;
15022;SDS011;19850;49.576;10.880;2022-08-24T21:04:32;9.37;;;6.90;;
15022;SDS011;19850;49.576;10.880;2022-08-24T21:08:35;12.23;;;6.67;;
15022;SDS011;19850;49.576;10.880;2022-08-24T21:12:38;9.10;;;7.30;;
15022;SDS011;19850;49.576;10.880;2022-08-24T21:16:44;8.43;;;7.43;;
15022;SDS011;19850;49.576;10.880;2022-08-24T21:20:48;8.87;;;7.20;;
15022;SDS011;19850;49.576;10.880;2022-08-24T21:25:05;9.23;;;7.67;;
15022;SDS011;19850;49.576;10.880;2022-08-24T21:29:09;8.50;;;7.10;;
15022;SDS011;19850;49.576;10.880;2022-08-24T21:33:12;8.67;;;7.30;;
15022;SDS011;19850;49.576;10.880;2022-08-24T21:37:34;9.27;;;7.63;;
15022;SDS011;19850;49.576;10.880;2022-08-24T21:41:37;8.80;;;7.33;;
15022;SDS011;19850;49.576;10.880;2022-08-24T21:45:40;9.70;;;7.93;;
15022;SDS011;19850;49.576;10.880;2022-08-24T21:49:45;11.47;;;8.47;;
15022;SDS011;19850;49.576;10.880;2022-08-24T21:53:50;10.43;;;8.77;;
15022;SDS011;19850;49.576;10.880;2022-08-24T21:58:00;10.60;;;7.67;;
15022;SDS011;19850;49.576;10.880;2022-08-24T22:02:03;15.60;;;8.20;;
15022;SDS011;19850;49.576;10.880;2022-08-24T22:06:06;9.60;;;8.00;;
15022;SDS011;19850;49.576;10.880;2022-08-24T22:10:11;12.10;;;8.10;;
15022;SDS011;19850;49.576;10.880;2022-08-24T22:14:14;10.50;;;8.47;;
15022;SDS011;19850;49.576;10.880;2022-08-24T22:18:17;11.10;;;8.53;;
15022;SDS011;19850;49.576;10.880;2022-08-24T22:22:20;9.67;;;8.63;;
15022;SDS011;19850;49.576;10.880;2022-08-24T22:26:25;11.60;;;8.17;;
15022;SDS011;19850;49.576;10.880;2022-08-24T22:30:30;10.07;;;8.77;;
15022;SDS011;19850;49.576;10.880;2022-08-24T22:34:33;10.33;;;8.23;;
15022;SDS011;19850;49.576;10.880;2022-08-24T22:38:37;12.63;;;8.80;;
15022;SDS011;19850;49.576;10.880;2022-08-24T22:42:41;12.80;;;8.20;;
15022;SDS011;19850;49.576;10.880;2022-08-24T22:46:44;9.97;;;7.60;;
15022;SDS011;19850;49.576;10.880;2022-08-24T22:50:47;11.13;;;8.30;;
15022;SDS011;19850;49.576;10.880;2022-08-24T22:54:50;9.50;;;8.60;;
15022;SDS011;19850;49.576;10.880;2022-08-24T22:58:58;10.57;;;8.50;;
15022;SDS011;19850;49.576;10.880;2022-08-24T23:03:01;9.03;;;8.13;;
15022;SDS011;19850;49.576;10.880;2022-08-24T23:07:04;10.90;;;8.90;;
15022;SDS011;19850;49.576;10.880;2022-08-24T23:11:08;9.93;;;8.83;;
15022;SDS011;19850;49.576;10.880;2022-08-24T23:15:12;10.23;;;8.13;;
15022;SDS011;19850;49.576;10.880;2022-08-24T23:19:16;9.87;;;8.60;;
15022;SDS011;19850;49.576;10.880;2022-08-24T23:23:37;9.13;;;8.10;;
15022;SDS011;19850;49.576;10.880;2022-08-24T23:27:40;10.67;;;8.80;;
15022;SDS011;19850;49.576;10.880;2022-08-24T23:31:50;9.60;;;8.60;;
15022;SDS011;19850;49.576;10.880;2022-08-24T23:35:54;13.17;;;8.30;;
15022;SDS011;19850;49.576;10.880;2022-08-24T23:40:01;9.80;;;8.40;;
15022;SDS011;19850;49.576;10.880;2022-08-24T23:44:05;11.87;;;8.90;;
15022;SDS011;19850;49.576;10.880;2022-08-24T23:48:11;9.53;;;8.53;;
15022;SDS011;19850;49.576;10.880;2022-08-24T23:52:14;12.37;;;10.07;;
15022;SDS011;19850;49.576;10.880;2022-08-24T23:56:29;10.33;;;9.33;;
